sensor_id;sensor_type;location;lat;lon;timestamp;P1;durP1;ratioP1;P2;durP2;ratioP2
9888;SDS011;4983;42.112;24.738;2022-08-19T00:00:00;8.40;;;6.83;;
9888;SDS011;4983;42.112;24.738;2022-08-19T00:02:29;7.77;;;6.97;;
9888;SDS011;4983;42.112;24.738;2022-08-19T00:04:58;8.70;;;7.20;;
9888;SDS011;4983;42.112;24.738;2022-08-19T00:07:25;7.97;;;7.17;;
9888;SDS011;4983;42.112;24.738;2022-08-19T00:09:51;8.70;;;7.80;;
9888;SDS011;4983;42.112;24.738;2022-08-19T00:12:18;10.20;;;8.00;;
9888;SDS011;4983;42.112;24.738;2022-08-19T00:14:47;9.57;;;8.60;;
9888;SDS011;4983;42.112;24.738;2022-08-19T00:17:14;9.27;;;8.33;;
9888;SDS011;4983;42.112;24.738;2022-08-19T00:19:41;9.83;;;8.27;;
9888;SDS011;4983;42.112;24.738;2022-08-19T00:22:08;10.93;;;8.80;;
9888;SDS011;4983;42.112;24.738;2022-08-19T00:24:35;11.13;;;8.33;;
9888;SDS011;4983;42.112;24.738;2022-08-19T00:27:03;10.77;;;8.43;;
9888;SDS011;4983;42.112;24.738;2022-08-19T00:29:30;9.70;;;8.53;;
9888;SDS011;4983;42.112;24.738;2022-08-19T00:31:59;10.83;;;8.57;;
9888;SDS011;4983;42.112;24.738;2022-08-19T00:34:26;11.73;;;8.50;;
9888;SDS011;4983;42.112;24.738;2022-08-19T00:36:54;11.50;;;8.20;;
9888;SDS011;4983;42.112;24.738;2022-08-19T00:39:21;11.63;;;7.80;;
9888;SDS011;4983;42.112;24.738;2022-08-19T00:41:49;9.10;;;8.20;;
9888;SDS011;4983;42.112;24.738;2022-08-19T00:44:19;10.47;;;8.20;;
9888;SDS011;4983;42.112;24.738;2022-08-19T00:46:49;9.43;;;8.20;;
9888;SDS011;4983;42.112;24.738;2022-08-19T00:49:19;10.40;;;8.13;;
9888;SDS011;4983;42.112;24.738;2022-08-19T00:51:51;17.87;;;9.70;;
9888;SDS011;4983;42.112;24.738;2022-08-19T00:54:22;22.00;;;9.97;;
9888;SDS011;4983;42.112;24.738;2022-08-19T00:56:50;23.90;;;9.97;;
9888;SDS011;4983;42.112;24.738;2022-08-19T00:59:18;20.07;;;9.13;;
9888;SDS011;4983;42.112;24.738;2022-08-19T01:01:45;15.03;;;9.13;;
9888;SDS011;4983;42.112;24.738;2022-08-19T01:04:13;8.77;;;7.87;;
9888;SDS011;4983;42.112;24.738;2022-08-19T01:06:42;20.13;;;9.13;;
9888;SDS011;4983;42.112;24.738;2022-08-19T01:09:09;14.13;;;8.80;;
9888;SDS011;4983;42.112;24.738;2022-08-19T01:11:38;15.60;;;9.03;;
9888;SDS011;4983;42.112;24.738;2022-08-19T01:14:08;12.97;;;8.70;;
9888;SDS011;4983;42.112;24.738;2022-08-19T01:16:36;16.33;;;8.57;;
9888;SDS011;4983;42.112;24.738;2022-08-19T01:19:07;10.17;;;9.17;;
9888;SDS011;4983;42.112;24.738;2022-08-19T01:21:40;12.10;;;9.17;;
9888;SDS011;4983;42.112;24.738;2022-08-19T01:24:15;9.80;;;8.50;;
9888;SDS011;4983;42.112;24.738;2022-08-19T01:26:42;10.70;;;8.93;;
9888;SDS011;4983;42.112;24.738;2022-08-19T01:29:10;11.97;;;8.70;;
9888;SDS011;4983;42.112;24.738;2022-08-19T01:31:38;12.73;;;9.10;;
9888;SDS011;4983;42.112;24.738;2022-08-19T01:34:06;12.47;;;9.13;;
9888;SDS011;4983;42.112;24.738;2022-08-19T01:36:36;11.60;;;9.10;;
9888;SDS011;4983;42.112;24.738;2022-08-19T01:39:09;10.63;;;8.80;;
9888;SDS011;4983;42.112;24.738;2022-08-19T01:41:39;9.53;;;8.63;;
9888;SDS011;4983;42.112;24.738;2022-08-19T01:44:07;11.60;;;9.20;;
9888;SDS011;4983;42.112;24.738;2022-08-19T01:46:35;11.53;;;8.27;;
9888;SDS011;4983;42.112;24.738;2022-08-19T01:49:03;10.57;;;8.80;;
9888;SDS011;4983;42.112;24.738;2022-08-19T01:51:31;9.60;;;8.70;;
9888;SDS011;4983;42.112;24.738;2022-08-19T01:53:58;9.57;;;8.57;;
9888;SDS011;4983;42.112;24.738;2022-08-19T01:56:26;10.07;;;9.07;;
9888;SDS011;4983;42.112;24.738;2022-08-19T01:58:55;11.13;;;8.93;;
9888;SDS011;4983;42.112;24.738;2022-08-19T02:01:26;11.33;;;9.20;;
9888;SDS011;4983;42.112;24.738;2022-08-19T02:03:57;11.97;;;9.60;;
9888;SDS011;4983;42.112;24.738;2022-08-19T02:06:26;15.43;;;9.40;;
9888;SDS011;4983;42.112;24.738;2022-08-19T02:08:53;11.77;;;8.70;;
9888;SDS011;4983;42.112;24.738;2022-08-19T02:11:22;11.07;;;9.00;;
9888;SDS011;4983;42.112;24.738;2022-08-19T02:13:51;17.90;;;9.13;;
9888;SDS011;4983;42.112;24.738;2022-08-19T02:16:21;12.13;;;8.93;;
9888;SDS011;4983;42.112;24.738;2022-08-19T02:18:48;11.60;;;9.10;;
9888;SDS011;4983;42.112;24.738;2022-08-19T02:21:15;12.83;;;9.30;;
9888;SDS011;4983;42.112;24.738;2022-08-19T02:23:43;12.13;;;9.67;;
9888;SDS011;4983;42.112;24.738;2022-08-19T02:26:11;11.90;;;9.00;;
9888;SDS011;4983;42.112;24.738;2022-08-19T02:28:38;16.93;;;9.60;;
9888;SDS011;4983;42.112;24.738;2022-08-19T02:31:08;14.43;;;9.60;;
9888;SDS011;4983;42.112;24.738;2022-08-19T02:33:37;12.00;;;9.50;;
9888;SDS011;4983;42.112;24.738;2022-08-19T02:36:04;10.60;;;9.60;;
9888;SDS011;4983;42.112;24.738;2022-08-19T02:38:33;12.07;;;9.47;;
9888;SDS011;4983;42.112;24.738;2022-08-19T02:41:01;15.63;;;9.87;;
9888;SDS011;4983;42.112;24.738;2022-08-19T02:43:30;10.57;;;9.57;;
9888;SDS011;4983;42.112;24.738;2022-08-19T02:45:59;13.77;;;9.77;;
9888;SDS011;4983;42.112;24.738;2022-08-19T02:48:27;10.83;;;9.67;;
9888;SDS011;4983;42.112;24.738;2022-08-19T02:50:55;13.87;;;10.13;;
9888;SDS011;4983;42.112;24.738;2022-08-19T02:53:24;10.37;;;9.27;;
9888;SDS011;4983;42.112;24.738;2022-08-19T02:55:53;10.00;;;9.00;;
9888;SDS011;4983;42.112;24.738;2022-08-19T02:58:21;15.57;;;10.23;;
9888;SDS011;4983;42.112;24.738;2022-08-19T03:00:50;19.83;;;10.33;;
9888;SDS011;4983;42.112;24.738;2022-08-19T03:03:18;14.00;;;9.50;;
9888;SDS011;4983;42.112;24.738;2022-08-19T03:05:46;20.33;;;10.87;;
9888;SDS011;4983;42.112;24.738;2022-08-19T03:08:15;35.07;;;11.73;;
9888;SDS011;4983;42.112;24.738;2022-08-19T03:10:43;23.57;;;11.67;;
9888;SDS011;4983;42.112;24.738;2022-08-19T03:13:13;16.73;;;10.27;;
9888;SDS011;4983;42.112;24.738;2022-08-19T03:15:41;12.43;;;10.40;;
9888;SDS011;4983;42.112;24.738;2022-08-19T03:18:09;22.87;;;10.83;;
9888;SDS011;4983;42.112;24.738;2022-08-19T03:20:40;13.53;;;10.00;;
9888;SDS011;4983;42.112;24.738;2022-08-19T03:25:40;24.30;;;11.00;;
9888;SDS011;4983;42.112;24.738;2022-08-19T03:28:09;16.27;;;10.60;;
9888;SDS011;4983;42.112;24.738;2022-08-19T03:30:37;29.63;;;11.40;;
9888;SDS011;4983;42.112;24.738;2022-08-19T03:33:05;26.37;;;10.83;;
9888;SDS011;4983;42.112;24.738;2022-08-19T03:35:32;48.37;;;13.50;;
9888;SDS011;4983;42.112;24.738;2022-08-19T03:38:01;34.63;;;12.37;;
9888;SDS011;4983;42.112;24.738;2022-08-19T03:40:29;25.30;;;11.33;;
9888;SDS011;4983;42.112;24.738;2022-08-19T03:42:57;52.53;;;13.97;;
9888;SDS011;4983;42.112;24.738;2022-08-19T03:45:24;43.83;;;13.13;;
9888;SDS011;4983;42.112;24.738;2022-08-19T03:47:51;37.00;;;11.93;;
9888;SDS011;4983;42.112;24.738;2022-08-19T03:50:18;29.03;;;11.20;;
9888;SDS011;4983;42.112;24.738;2022-08-19T03:52:48;21.40;;;10.23;;
9888;SDS011;4983;42.112;24.738;2022-08-19T03:55:16;15.90;;;9.50;;
9888;SDS011;4983;42.112;24.738;2022-08-19T03:57:43;19.30;;;10.33;;
9888;SDS011;4983;42.112;24.738;2022-08-19T04:00:15;20.63;;;10.63;;
9888;SDS011;4983;42.112;24.738;2022-08-19T04:02:44;20.23;;;11.07;;
9888;SDS011;4983;42.112;24.738;2022-08-19T04:05:11;34.43;;;12.13;;
9888;SDS011;4983;42.112;24.738;2022-08-19T04:07:39;42.90;;;12.47;;
9888;SDS011;4983;42.112;24.738;2022-08-19T04:10:06;20.43;;;11.80;;
9888;SDS011;4983;42.112;24.738;2022-08-19T04:12:35;29.27;;;11.93;;
9888;SDS011;4983;42.112;24.738;2022-08-19T04:15:04;28.57;;;10.80;;
9888;SDS011;4983;42.112;24.738;2022-08-19T04:17:32;24.43;;;11.33;;
9888;SDS011;4983;42.112;24.738;2022-08-19T04:19:59;57.07;;;12.27;;
9888;SDS011;4983;42.112;24.738;2022-08-19T04:22:26;38.90;;;11.77;;
9888;SDS011;4983;42.112;24.738;2022-08-19T04:24:53;29.37;;;11.20;;
9888;SDS011;4983;42.112;24.738;2022-08-19T04:27:20;30.03;;;12.30;;
9888;SDS011;4983;42.112;24.738;2022-08-19T04:29:47;62.80;;;14.70;;
9888;SDS011;4983;42.112;24.738;2022-08-19T04:32:14;40.00;;;11.77;;
9888;SDS011;4983;42.112;24.738;2022-08-19T04:34:42;27.13;;;10.53;;
9888;SDS011;4983;42.112;24.738;2022-08-19T04:37:09;29.37;;;11.10;;
9888;SDS011;4983;42.112;24.738;2022-08-19T04:39:39;22.87;;;11.10;;
9888;SDS011;4983;42.112;24.738;2022-08-19T04:42:24;31.77;;;11.83;;
9888;SDS011;4983;42.112;24.738;2022-08-19T04:45:07;25.40;;;11.10;;
9888;SDS011;4983;42.112;24.738;2022-08-19T04:47:35;28.07;;;11.90;;
9888;SDS011;4983;42.112;24.738;2022-08-19T04:50:05;15.23;;;10.20;;
9888;SDS011;4983;42.112;24.738;2022-08-19T04:52:34;16.03;;;9.90;;
9888;SDS011;4983;42.112;24.738;2022-08-19T04:55:01;12.40;;;8.83;;
9888;SDS011;4983;42.112;24.738;2022-08-19T04:57:28;16.90;;;9.27;;
9888;SDS011;4983;42.112;24.738;2022-08-19T04:59:55;13.30;;;9.13;;
9888;SDS011;4983;42.112;24.738;2022-08-19T05:02:23;29.40;;;10.43;;
9888;SDS011;4983;42.112;24.738;2022-08-19T05:04:50;18.47;;;9.87;;
9888;SDS011;4983;42.112;24.738;2022-08-19T05:07:20;17.67;;;11.17;;
9888;SDS011;4983;42.112;24.738;2022-08-19T05:09:47;23.17;;;10.43;;
9888;SDS011;4983;42.112;24.738;2022-08-19T05:12:14;65.43;;;15.73;;
9888;SDS011;4983;42.112;24.738;2022-08-19T05:14:41;41.67;;;11.63;;
9888;SDS011;4983;42.112;24.738;2022-08-19T05:17:09;25.63;;;10.50;;
9888;SDS011;4983;42.112;24.738;2022-08-19T05:19:36;21.03;;;11.23;;
9888;SDS011;4983;42.112;24.738;2022-08-19T05:22:22;28.67;;;11.67;;
9888;SDS011;4983;42.112;24.738;2022-08-19T05:25:04;45.60;;;11.83;;
9888;SDS011;4983;42.112;24.738;2022-08-19T05:27:33;83.17;;;15.17;;
9888;SDS011;4983;42.112;24.738;2022-08-19T05:30:00;25.97;;;9.80;;
9888;SDS011;4983;42.112;24.738;2022-08-19T05:32:28;22.97;;;10.07;;
9888;SDS011;4983;42.112;24.738;2022-08-19T05:34:55;12.83;;;9.00;;
9888;SDS011;4983;42.112;24.738;2022-08-19T05:37:24;14.23;;;8.67;;
9888;SDS011;4983;42.112;24.738;2022-08-19T05:39:53;12.77;;;8.90;;
9888;SDS011;4983;42.112;24.738;2022-08-19T05:42:20;12.53;;;8.63;;
9888;SDS011;4983;42.112;24.738;2022-08-19T05:44:49;31.33;;;10.13;;
9888;SDS011;4983;42.112;24.738;2022-08-19T05:47:17;23.20;;;10.40;;
9888;SDS011;4983;42.112;24.738;2022-08-19T05:49:45;29.17;;;10.63;;
9888;SDS011;4983;42.112;24.738;2022-08-19T05:52:13;19.17;;;9.07;;
9888;SDS011;4983;42.112;24.738;2022-08-19T05:54:43;18.67;;;8.17;;
9888;SDS011;4983;42.112;24.738;2022-08-19T05:57:12;18.80;;;8.37;;
9888;SDS011;4983;42.112;24.738;2022-08-19T05:59:40;22.33;;;8.23;;
9888;SDS011;4983;42.112;24.738;2022-08-19T06:02:07;18.97;;;7.97;;
9888;SDS011;4983;42.112;24.738;2022-08-19T06:04:35;34.97;;;10.47;;
9888;SDS011;4983;42.112;24.738;2022-08-19T06:07:03;14.87;;;7.60;;
9888;SDS011;4983;42.112;24.738;2022-08-19T06:09:30;11.90;;;7.27;;
9888;SDS011;4983;42.112;24.738;2022-08-19T06:11:59;17.23;;;7.27;;
9888;SDS011;4983;42.112;24.738;2022-08-19T06:14:29;23.37;;;7.57;;
9888;SDS011;4983;42.112;24.738;2022-08-19T06:16:58;12.03;;;7.70;;
9888;SDS011;4983;42.112;24.738;2022-08-19T06:19:27;13.30;;;8.03;;
9888;SDS011;4983;42.112;24.738;2022-08-19T06:21:55;8.73;;;7.60;;
9888;SDS011;4983;42.112;24.738;2022-08-19T06:24:24;10.57;;;7.17;;
9888;SDS011;4983;42.112;24.738;2022-08-19T06:26:54;13.63;;;7.90;;
9888;SDS011;4983;42.112;24.738;2022-08-19T06:29:25;11.50;;;7.40;;
9888;SDS011;4983;42.112;24.738;2022-08-19T06:31:54;10.37;;;6.90;;
9888;SDS011;4983;42.112;24.738;2022-08-19T06:34:22;11.70;;;7.10;;
9888;SDS011;4983;42.112;24.738;2022-08-19T06:36:51;9.73;;;7.07;;
9888;SDS011;4983;42.112;24.738;2022-08-19T06:39:19;9.33;;;7.00;;
9888;SDS011;4983;42.112;24.738;2022-08-19T06:41:49;18.00;;;7.90;;
9888;SDS011;4983;42.112;24.738;2022-08-19T06:44:18;8.83;;;7.17;;
9888;SDS011;4983;42.112;24.738;2022-08-19T06:46:47;9.50;;;7.50;;
9888;SDS011;4983;42.112;24.738;2022-08-19T06:49:15;13.90;;;6.83;;
9888;SDS011;4983;42.112;24.738;2022-08-19T06:51:44;17.97;;;8.10;;
9888;SDS011;4983;42.112;24.738;2022-08-19T06:54:13;10.10;;;6.90;;
9888;SDS011;4983;42.112;24.738;2022-08-19T06:56:41;11.80;;;6.70;;
9888;SDS011;4983;42.112;24.738;2022-08-19T06:59:09;10.23;;;6.70;;
9888;SDS011;4983;42.112;24.738;2022-08-19T07:01:39;12.03;;;7.30;;
9888;SDS011;4983;42.112;24.738;2022-08-19T07:04:12;22.73;;;8.53;;
9888;SDS011;4983;42.112;24.738;2022-08-19T07:06:43;9.07;;;7.20;;
9888;SDS011;4983;42.112;24.738;2022-08-19T07:09:11;11.57;;;6.83;;
9888;SDS011;4983;42.112;24.738;2022-08-19T07:11:43;11.00;;;7.10;;
9888;SDS011;4983;42.112;24.738;2022-08-19T07:14:10;22.40;;;7.53;;
9888;SDS011;4983;42.112;24.738;2022-08-19T07:16:39;8.73;;;6.73;;
9888;SDS011;4983;42.112;24.738;2022-08-19T07:19:06;14.30;;;7.50;;
9888;SDS011;4983;42.112;24.738;2022-08-19T07:21:35;10.63;;;7.27;;
9888;SDS011;4983;42.112;24.738;2022-08-19T07:24:02;55.20;;;10.17;;
9888;SDS011;4983;42.112;24.738;2022-08-19T07:26:31;8.27;;;7.40;;
9888;SDS011;4983;42.112;24.738;2022-08-19T07:29:00;8.47;;;6.53;;
9888;SDS011;4983;42.112;24.738;2022-08-19T07:31:27;16.00;;;7.03;;
9888;SDS011;4983;42.112;24.738;2022-08-19T07:33:55;10.73;;;6.27;;
9888;SDS011;4983;42.112;24.738;2022-08-19T07:36:23;13.10;;;6.90;;
9888;SDS011;4983;42.112;24.738;2022-08-19T07:38:59;11.63;;;6.47;;
9888;SDS011;4983;42.112;24.738;2022-08-19T07:41:29;7.43;;;6.00;;
9888;SDS011;4983;42.112;24.738;2022-08-19T07:43:57;21.73;;;6.63;;
9888;SDS011;4983;42.112;24.738;2022-08-19T07:46:28;28.83;;;7.53;;
9888;SDS011;4983;42.112;24.738;2022-08-19T07:48:56;8.03;;;5.63;;
9888;SDS011;4983;42.112;24.738;2022-08-19T07:51:24;7.60;;;5.40;;
9888;SDS011;4983;42.112;24.738;2022-08-19T07:53:51;9.77;;;5.67;;
9888;SDS011;4983;42.112;24.738;2022-08-19T07:56:20;15.67;;;5.80;;
9888;SDS011;4983;42.112;24.738;2022-08-19T07:58:48;7.53;;;5.40;;
9888;SDS011;4983;42.112;24.738;2022-08-19T08:01:18;10.20;;;5.73;;
9888;SDS011;4983;42.112;24.738;2022-08-19T08:03:49;10.07;;;5.53;;
9888;SDS011;4983;42.112;24.738;2022-08-19T08:06:35;9.93;;;5.70;;
9888;SDS011;4983;42.112;24.738;2022-08-19T08:09:22;9.60;;;5.40;;
9888;SDS011;4983;42.112;24.738;2022-08-19T08:11:53;6.73;;;5.20;;
9888;SDS011;4983;42.112;24.738;2022-08-19T08:14:23;7.20;;;5.13;;
9888;SDS011;4983;42.112;24.738;2022-08-19T08:16:51;9.40;;;6.03;;
9888;SDS011;4983;42.112;24.738;2022-08-19T08:19:20;7.17;;;5.67;;
9888;SDS011;4983;42.112;24.738;2022-08-19T08:21:48;11.87;;;5.70;;
9888;SDS011;4983;42.112;24.738;2022-08-19T08:24:17;9.63;;;5.17;;
9888;SDS011;4983;42.112;24.738;2022-08-19T08:26:46;10.97;;;4.93;;
9888;SDS011;4983;42.112;24.738;2022-08-19T08:29:14;8.13;;;5.10;;
9888;SDS011;4983;42.112;24.738;2022-08-19T08:31:42;10.87;;;5.63;;
9888;SDS011;4983;42.112;24.738;2022-08-19T08:34:11;29.20;;;8.03;;
9888;SDS011;4983;42.112;24.738;2022-08-19T08:36:39;11.27;;;5.37;;
9888;SDS011;4983;42.112;24.738;2022-08-19T08:39:10;9.20;;;4.90;;
9888;SDS011;4983;42.112;24.738;2022-08-19T08:41:41;9.50;;;5.00;;
9888;SDS011;4983;42.112;24.738;2022-08-19T08:44:17;8.10;;;5.07;;
9888;SDS011;4983;42.112;24.738;2022-08-19T08:46:48;6.90;;;5.13;;
9888;SDS011;4983;42.112;24.738;2022-08-19T08:49:23;6.07;;;4.90;;
9888;SDS011;4983;42.112;24.738;2022-08-19T08:51:58;9.30;;;5.67;;
9888;SDS011;4983;42.112;24.738;2022-08-19T08:54:30;8.80;;;5.13;;
9888;SDS011;4983;42.112;24.738;2022-08-19T08:57:02;10.80;;;4.90;;
9888;SDS011;4983;42.112;24.738;2022-08-19T08:59:36;9.47;;;4.73;;
9888;SDS011;4983;42.112;24.738;2022-08-19T09:02:06;5.20;;;4.70;;
9888;SDS011;4983;42.112;24.738;2022-08-19T09:04:36;6.77;;;5.10;;
9888;SDS011;4983;42.112;24.738;2022-08-19T09:07:11;8.07;;;4.63;;
9888;SDS011;4983;42.112;24.738;2022-08-19T09:09:46;6.70;;;4.53;;
9888;SDS011;4983;42.112;24.738;2022-08-19T09:12:16;14.57;;;5.80;;
9888;SDS011;4983;42.112;24.738;2022-08-19T09:14:52;5.73;;;5.13;;
9888;SDS011;4983;42.112;24.738;2022-08-19T09:17:24;6.63;;;5.30;;
9888;SDS011;4983;42.112;24.738;2022-08-19T09:19:57;8.13;;;5.23;;
9888;SDS011;4983;42.112;24.738;2022-08-19T09:22:29;11.10;;;5.47;;
9888;SDS011;4983;42.112;24.738;2022-08-19T09:24:57;8.57;;;5.00;;
9888;SDS011;4983;42.112;24.738;2022-08-19T09:27:24;10.70;;;5.03;;
9888;SDS011;4983;42.112;24.738;2022-08-19T09:29:55;6.87;;;4.70;;
9888;SDS011;4983;42.112;24.738;2022-08-19T09:32:23;22.27;;;6.87;;
9888;SDS011;4983;42.112;24.738;2022-08-19T09:34:51;6.17;;;4.70;;
9888;SDS011;4983;42.112;24.738;2022-08-19T09:37:20;5.77;;;4.70;;
9888;SDS011;4983;42.112;24.738;2022-08-19T09:39:47;8.47;;;4.63;;
9888;SDS011;4983;42.112;24.738;2022-08-19T09:42:14;9.00;;;4.97;;
9888;SDS011;4983;42.112;24.738;2022-08-19T09:44:41;17.03;;;5.80;;
9888;SDS011;4983;42.112;24.738;2022-08-19T09:47:13;8.67;;;4.70;;
9888;SDS011;4983;42.112;24.738;2022-08-19T09:49:40;20.67;;;5.97;;
9888;SDS011;4983;42.112;24.738;2022-08-19T09:52:08;7.87;;;4.40;;
9888;SDS011;4983;42.112;24.738;2022-08-19T09:54:36;6.47;;;3.90;;
9888;SDS011;4983;42.112;24.738;2022-08-19T09:57:04;4.83;;;4.40;;
9888;SDS011;4983;42.112;24.738;2022-08-19T09:59:31;12.50;;;5.17;;
9888;SDS011;4983;42.112;24.738;2022-08-19T10:01:59;16.10;;;5.23;;
9888;SDS011;4983;42.112;24.738;2022-08-19T10:04:27;6.30;;;4.37;;
9888;SDS011;4983;42.112;24.738;2022-08-19T10:07:14;20.53;;;5.50;;
9888;SDS011;4983;42.112;24.738;2022-08-19T10:09:42;7.60;;;3.93;;
9888;SDS011;4983;42.112;24.738;2022-08-19T10:12:09;4.30;;;3.90;;
9888;SDS011;4983;42.112;24.738;2022-08-19T10:14:36;17.20;;;4.90;;
9888;SDS011;4983;42.112;24.738;2022-08-19T10:17:04;25.47;;;5.70;;
9888;SDS011;4983;42.112;24.738;2022-08-19T10:19:32;6.23;;;4.53;;
9888;SDS011;4983;42.112;24.738;2022-08-19T10:22:04;6.40;;;4.70;;
9888;SDS011;4983;42.112;24.738;2022-08-19T10:24:33;13.30;;;4.80;;
9888;SDS011;4983;42.112;24.738;2022-08-19T10:27:00;5.20;;;4.03;;
9888;SDS011;4983;42.112;24.738;2022-08-19T10:29:30;7.37;;;4.70;;
9888;SDS011;4983;42.112;24.738;2022-08-19T10:31:59;10.07;;;4.90;;
9888;SDS011;4983;42.112;24.738;2022-08-19T10:34:28;4.97;;;4.13;;
9888;SDS011;4983;42.112;24.738;2022-08-19T10:36:57;6.70;;;4.30;;
9888;SDS011;4983;42.112;24.738;2022-08-19T10:39:26;6.07;;;4.47;;
9888;SDS011;4983;42.112;24.738;2022-08-19T10:41:54;4.60;;;4.20;;
9888;SDS011;4983;42.112;24.738;2022-08-19T10:44:22;16.40;;;5.03;;
9888;SDS011;4983;42.112;24.738;2022-08-19T10:46:49;5.73;;;4.03;;
9888;SDS011;4983;42.112;24.738;2022-08-19T10:49:17;11.40;;;4.57;;
9888;SDS011;4983;42.112;24.738;2022-08-19T10:51:45;5.40;;;3.90;;
9888;SDS011;4983;42.112;24.738;2022-08-19T10:54:32;5.83;;;4.20;;
9888;SDS011;4983;42.112;24.738;2022-08-19T10:57:13;8.20;;;4.10;;
9888;SDS011;4983;42.112;24.738;2022-08-19T10:59:40;20.10;;;5.40;;
9888;SDS011;4983;42.112;24.738;2022-08-19T11:02:08;6.27;;;4.30;;
9888;SDS011;4983;42.112;24.738;2022-08-19T11:04:37;9.87;;;4.30;;
9888;SDS011;4983;42.112;24.738;2022-08-19T11:07:05;13.77;;;3.93;;
9888;SDS011;4983;42.112;24.738;2022-08-19T11:09:38;5.50;;;3.77;;
9888;SDS011;4983;42.112;24.738;2022-08-19T11:12:07;11.40;;;4.37;;
9888;SDS011;4983;42.112;24.738;2022-08-19T11:14:35;6.33;;;3.70;;
9888;SDS011;4983;42.112;24.738;2022-08-19T11:17:03;12.27;;;4.43;;
9888;SDS011;4983;42.112;24.738;2022-08-19T11:19:31;7.13;;;3.90;;
9888;SDS011;4983;42.112;24.738;2022-08-19T11:21:58;7.63;;;4.20;;
9888;SDS011;4983;42.112;24.738;2022-08-19T11:24:30;20.83;;;5.53;;
9888;SDS011;4983;42.112;24.738;2022-08-19T11:27:02;7.67;;;3.80;;
9888;SDS011;4983;42.112;24.738;2022-08-19T11:29:31;6.73;;;3.90;;
9888;SDS011;4983;42.112;24.738;2022-08-19T11:32:00;12.07;;;4.20;;
9888;SDS011;4983;42.112;24.738;2022-08-19T11:34:30;4.67;;;3.80;;
9888;SDS011;4983;42.112;24.738;2022-08-19T11:36:57;8.00;;;4.07;;
9888;SDS011;4983;42.112;24.738;2022-08-19T11:39:25;5.03;;;4.00;;
9888;SDS011;4983;42.112;24.738;2022-08-19T11:41:53;5.17;;;3.67;;
9888;SDS011;4983;42.112;24.738;2022-08-19T11:44:22;19.20;;;4.93;;
9888;SDS011;4983;42.112;24.738;2022-08-19T11:46:50;8.83;;;4.60;;
9888;SDS011;4983;42.112;24.738;2022-08-19T11:49:18;10.50;;;3.73;;
9888;SDS011;4983;42.112;24.738;2022-08-19T11:51:46;5.90;;;3.77;;
9888;SDS011;4983;42.112;24.738;2022-08-19T11:54:15;9.20;;;4.30;;
9888;SDS011;4983;42.112;24.738;2022-08-19T11:56:42;4.80;;;3.67;;
9888;SDS011;4983;42.112;24.738;2022-08-19T11:59:10;5.80;;;3.87;;
9888;SDS011;4983;42.112;24.738;2022-08-19T12:01:39;12.37;;;4.23;;
9888;SDS011;4983;42.112;24.738;2022-08-19T12:04:08;14.50;;;4.07;;
9888;SDS011;4983;42.112;24.738;2022-08-19T12:06:37;10.63;;;4.27;;
9888;SDS011;4983;42.112;24.738;2022-08-19T12:09:05;12.00;;;4.30;;
9888;SDS011;4983;42.112;24.738;2022-08-19T12:11:37;7.07;;;4.00;;
9888;SDS011;4983;42.112;24.738;2022-08-19T12:14:06;15.00;;;4.57;;
9888;SDS011;4983;42.112;24.738;2022-08-19T12:16:35;10.00;;;4.10;;
9888;SDS011;4983;42.112;24.738;2022-08-19T12:19:03;7.53;;;4.20;;
9888;SDS011;4983;42.112;24.738;2022-08-19T12:21:32;7.47;;;3.90;;
9888;SDS011;4983;42.112;24.738;2022-08-19T12:24:01;12.50;;;4.60;;
9888;SDS011;4983;42.112;24.738;2022-08-19T12:26:30;7.93;;;3.70;;
9888;SDS011;4983;42.112;24.738;2022-08-19T12:28:57;5.93;;;3.90;;
9888;SDS011;4983;42.112;24.738;2022-08-19T12:31:25;9.70;;;4.30;;
9888;SDS011;4983;42.112;24.738;2022-08-19T12:33:53;11.47;;;4.57;;
9888;SDS011;4983;42.112;24.738;2022-08-19T12:36:21;5.87;;;3.90;;
9888;SDS011;4983;42.112;24.738;2022-08-19T12:38:48;5.07;;;3.80;;
9888;SDS011;4983;42.112;24.738;2022-08-19T12:41:16;4.70;;;3.83;;
9888;SDS011;4983;42.112;24.738;2022-08-19T12:43:44;10.60;;;4.20;;
9888;SDS011;4983;42.112;24.738;2022-08-19T12:46:12;4.70;;;3.70;;
9888;SDS011;4983;42.112;24.738;2022-08-19T12:48:39;5.00;;;3.70;;
9888;SDS011;4983;42.112;24.738;2022-08-19T12:51:08;15.17;;;4.97;;
9888;SDS011;4983;42.112;24.738;2022-08-19T12:53:39;6.00;;;4.00;;
9888;SDS011;4983;42.112;24.738;2022-08-19T12:56:07;5.53;;;3.83;;
9888;SDS011;4983;42.112;24.738;2022-08-19T12:58:36;9.13;;;3.70;;
9888;SDS011;4983;42.112;24.738;2022-08-19T13:01:06;9.53;;;4.10;;
9888;SDS011;4983;42.112;24.738;2022-08-19T13:03:35;27.30;;;6.30;;
9888;SDS011;4983;42.112;24.738;2022-08-19T13:06:03;51.67;;;7.47;;
9888;SDS011;4983;42.112;24.738;2022-08-19T13:08:30;64.00;;;8.97;;
9888;SDS011;4983;42.112;24.738;2022-08-19T13:10:59;6.30;;;3.90;;
9888;SDS011;4983;42.112;24.738;2022-08-19T13:13:33;9.00;;;4.17;;
9888;SDS011;4983;42.112;24.738;2022-08-19T13:16:00;8.43;;;3.87;;
9888;SDS011;4983;42.112;24.738;2022-08-19T13:18:29;90.60;;;10.53;;
9888;SDS011;4983;42.112;24.738;2022-08-19T13:21:01;9.57;;;3.93;;
9888;SDS011;4983;42.112;24.738;2022-08-19T13:23:30;8.13;;;4.10;;
9888;SDS011;4983;42.112;24.738;2022-08-19T13:25:59;6.13;;;3.80;;
9888;SDS011;4983;42.112;24.738;2022-08-19T13:28:27;11.37;;;4.43;;
9888;SDS011;4983;42.112;24.738;2022-08-19T13:31:15;8.33;;;4.40;;
9888;SDS011;4983;42.112;24.738;2022-08-19T13:34:01;12.67;;;4.00;;
9888;SDS011;4983;42.112;24.738;2022-08-19T13:36:28;4.90;;;3.63;;
9888;SDS011;4983;42.112;24.738;2022-08-19T13:38:56;5.80;;;3.90;;
9888;SDS011;4983;42.112;24.738;2022-08-19T13:41:24;15.50;;;4.97;;
9888;SDS011;4983;42.112;24.738;2022-08-19T13:43:52;6.60;;;3.53;;
9888;SDS011;4983;42.112;24.738;2022-08-19T13:46:19;13.47;;;4.50;;
9888;SDS011;4983;42.112;24.738;2022-08-19T13:48:47;6.73;;;3.73;;
9888;SDS011;4983;42.112;24.738;2022-08-19T13:51:15;10.13;;;4.50;;
9888;SDS011;4983;42.112;24.738;2022-08-19T13:53:44;4.33;;;3.93;;
9888;SDS011;4983;42.112;24.738;2022-08-19T13:56:12;4.93;;;4.07;;
9888;SDS011;4983;42.112;24.738;2022-08-19T13:58:43;6.07;;;3.87;;
9888;SDS011;4983;42.112;24.738;2022-08-19T14:01:10;7.13;;;4.13;;
9888;SDS011;4983;42.112;24.738;2022-08-19T14:03:37;4.33;;;3.80;;
9888;SDS011;4983;42.112;24.738;2022-08-19T14:06:05;15.93;;;4.60;;
9888;SDS011;4983;42.112;24.738;2022-08-19T14:08:32;4.77;;;3.77;;
9888;SDS011;4983;42.112;24.738;2022-08-19T14:11:00;5.57;;;3.90;;
9888;SDS011;4983;42.112;24.738;2022-08-19T14:13:27;4.63;;;3.70;;
9888;SDS011;4983;42.112;24.738;2022-08-19T14:15:55;5.13;;;3.60;;
9888;SDS011;4983;42.112;24.738;2022-08-19T14:18:23;7.07;;;3.73;;
9888;SDS011;4983;42.112;24.738;2022-08-19T14:20:50;6.33;;;3.70;;
9888;SDS011;4983;42.112;24.738;2022-08-19T14:23:17;5.43;;;3.67;;
9888;SDS011;4983;42.112;24.738;2022-08-19T14:25:45;13.07;;;4.20;;
9888;SDS011;4983;42.112;24.738;2022-08-19T14:28:12;7.83;;;3.80;;
9888;SDS011;4983;42.112;24.738;2022-08-19T14:30:39;7.50;;;3.57;;
9888;SDS011;4983;42.112;24.738;2022-08-19T14:33:08;7.40;;;4.47;;
9888;SDS011;4983;42.112;24.738;2022-08-19T14:35:35;6.70;;;3.77;;
9888;SDS011;4983;42.112;24.738;2022-08-19T14:38:03;5.73;;;3.80;;
9888;SDS011;4983;42.112;24.738;2022-08-19T14:40:31;4.07;;;3.70;;
9888;SDS011;4983;42.112;24.738;2022-08-19T14:43:01;7.70;;;3.90;;
9888;SDS011;4983;42.112;24.738;2022-08-19T14:45:29;45.17;;;6.57;;
9888;SDS011;4983;42.112;24.738;2022-08-19T14:47:58;14.80;;;4.20;;
9888;SDS011;4983;42.112;24.738;2022-08-19T14:50:27;5.93;;;4.00;;
9888;SDS011;4983;42.112;24.738;2022-08-19T14:52:58;10.07;;;4.43;;
9888;SDS011;4983;42.112;24.738;2022-08-19T14:55:26;19.50;;;5.53;;
9888;SDS011;4983;42.112;24.738;2022-08-19T14:57:53;6.00;;;3.70;;
9888;SDS011;4983;42.112;24.738;2022-08-19T15:00:20;5.77;;;3.60;;
9888;SDS011;4983;42.112;24.738;2022-08-19T15:02:48;4.87;;;3.80;;